Time;durP1;ratioP1;P1;durP2;ratioP2;P2;SDS_P1;SDS_P2;PMS_P1;PMS_P2;Temp;Humidity;BMP_temperature;BMP_pressure;BME280_temperature;BME280_humidity;BME280_pressure;Samples;Min_cycle;Max_cycle;Signal;HPM_P1;HPM_P2
2023/01/25 00:03:05;;;;;;;55.17;34.93;;;1.60;99.90;;;;;;6267555;22;20016;-78
2023/01/25 00:05:31;;;;;;;51.53;33.90;;;1.60;99.90;;;;;;6305218;22;38910;-80
2023/01/25 00:07:57;;;;;;;50.70;34.20;;;1.60;99.90;;;;;;6304612;22;39724;-79
2023/01/25 00:10:23;;;;;;;49.47;32.77;;;1.60;99.90;;;;;;6305326;22;37551;-79
2023/01/25 00:12:49;;;;;;;51.13;33.20;;;1.60;99.90;;;;;;6308264;22;40319;-79
2023/01/25 00:15:15;;;;;;;51.87;34.10;;;1.50;99.90;;;;;;6306202;22;39868;-80
2023/01/25 00:17:41;;;;;;;48.37;32.77;;;1.60;99.90;;;;;;6308585;22;39458;-80
2023/01/25 00:20:08;;;;;;;48.07;31.97;;;1.60;99.90;;;;;;6306148;22;39607;-79
2023/01/25 00:22:34;;;;;;;53.00;33.00;;;1.60;99.90;;;;;;6308339;22;38374;-80
2023/01/25 00:25:01;;;;;;;52.23;35.07;;;1.60;99.90;;;;;;6304397;22;37358;-81
2023/01/25 00:27:27;;;;;;;49.07;33.07;;;1.60;99.90;;;;;;6304648;22;47778;-80
2023/01/25 00:29:53;;;;;;;50.03;33.83;;;1.60;99.90;;;;;;6307799;22;37315;-81
2023/01/25 00:32:19;;;;;;;50.70;33.93;;;1.60;99.90;;;;;;6306551;22;40229;-80
2023/01/25 00:37:50;;;;;;;53.47;34.60;;;1.50;99.90;;;;;;6274184;22;20012;-80
2023/01/25 00:40:16;;;;;;;50.50;33.93;;;1.50;99.90;;;;;;6264044;22;37602;-80
2023/01/25 00:42:42;;;;;;;50.20;34.60;;;1.60;99.90;;;;;;6282739;22;39429;-80
2023/01/25 00:47:44;;;;;;;51.30;32.93;;;1.60;99.90;;;;;;6236873;22;20008;-80
2023/01/25 00:50:26;;;;;;;48.80;32.77;;;1.60;99.90;;;;;;6304956;22;38062;-80
2023/01/25 00:52:52;;;;;;;48.70;33.17;;;1.60;99.90;;;;;;6250483;22;39112;-80
2023/01/25 00:55:46;;;;;;;49.90;34.00;;;1.60;99.90;;;;;;6290949;22;38285;-80
2023/01/25 00:58:12;;;;;;;50.97;33.97;;;1.60;99.90;;;;;;6218546;22;38337;-79
2023/01/25 01:00:38;;;;;;;47.37;32.27;;;1.60;99.90;;;;;;6247290;22;39041;-80
2023/01/25 01:03:17;;;;;;;52.80;34.47;;;1.60;99.90;;;;;;6244897;22;40426;-79
2023/01/25 01:05:44;;;;;;;60.00;36.60;;;1.60;99.90;;;;;;6219382;23;38600;-80
2023/01/25 01:08:19;;;;;;;53.83;35.60;;;1.50;99.90;;;;;;6242920;22;37989;-79
2023/01/25 01:10:45;;;;;;;50.77;34.47;;;1.50;99.90;;;;;;6257175;22;38031;-80
2023/01/25 01:13:11;;;;;;;50.90;33.83;;;1.40;99.90;;;;;;6305580;22;40274;-80
2023/01/25 01:15:37;;;;;;;56.60;35.67;;;1.40;99.90;;;;;;6305925;22;38200;-79
2023/01/25 01:18:03;;;;;;;50.93;34.43;;;1.40;99.90;;;;;;6305244;22;38026;-78
2023/01/25 01:20:30;;;;;;;49.20;33.70;;;1.40;99.90;;;;;;6306672;22;37214;-79
2023/01/25 01:22:56;;;;;;;53.17;34.43;;;1.40;99.90;;;;;;6306673;22;38561;-80
2023/01/25 01:25:22;;;;;;;50.40;34.23;;;1.40;99.90;;;;;;6305411;22;40017;-79
2023/01/25 01:27:56;;;;;;;56.43;36.17;;;1.40;99.90;;;;;;6306962;22;38451;-78
2023/01/25 01:30:25;;;;;;;55.97;37.37;;;1.40;99.90;;;;;;6301945;22;39073;-79
2023/01/25 01:33:04;;;;;;;59.90;36.80;;;1.30;99.90;;;;;;6309004;22;40522;-79
2023/01/25 01:35:30;;;;;;;54.63;34.90;;;1.40;99.90;;;;;;6303554;22;48641;-80
2023/01/25 01:37:56;;;;;;;53.90;34.90;;;1.40;99.90;;;;;;6309324;22;39648;-78
2023/01/25 01:40:23;;;;;;;56.17;34.97;;;1.40;99.90;;;;;;6301889;22;37611;-78
2023/01/25 01:43:15;;;;;;;58.13;37.53;;;1.30;99.90;;;;;;6305646;22;39093;-78
2023/01/25 01:45:47;;;;;;;58.03;37.00;;;1.20;99.90;;;;;;6292565;22;48518;-78
2023/01/25 01:48:16;;;;;;;56.17;35.30;;;1.20;99.90;;;;;;6305296;22;38569;-78
2023/01/25 01:50:49;;;;;;;58.33;35.57;;;1.20;99.90;;;;;;6306830;22;38926;-78
2023/01/25 01:53:16;;;;;;;58.33;36.33;;;1.30;99.90;;;;;;6303593;22;40335;-77
2023/01/25 01:55:57;;;;;;;58.47;36.40;;;1.30;99.90;;;;;;6305966;22;38556;-79
2023/01/25 01:58:23;;;;;;;56.57;35.33;;;1.30;99.90;;;;;;6305138;22;38074;-79
2023/01/25 02:03:26;;;;;;;55.33;36.43;;;1.30;99.90;;;;;;6270238;22;20547;-76
2023/01/25 02:06:24;;;;;;;60.77;37.20;;;1.40;99.90;;;;;;6276620;22;37276;-77
2023/01/25 02:08:52;;;;;;;56.87;36.73;;;1.40;99.90;;;;;;6233828;22;47987;-75
2023/01/25 02:11:19;;;;;;;59.67;37.93;;;1.40;99.90;;;;;;6303570;22;38348;-77
2023/01/25 02:13:47;;;;;;;58.23;36.27;;;1.50;99.90;;;;;;6278050;22;37473;-78
2023/01/25 02:16:18;;;;;;;54.50;35.57;;;1.50;99.90;;;;;;6304051;22;38685;-78
2023/01/25 02:18:44;;;;;;;58.23;36.27;;;1.50;99.90;;;;;;6277112;22;37263;-78
2023/01/25 02:21:10;;;;;;;57.30;37.07;;;1.50;99.90;;;;;;6302904;22;37929;-77
2023/01/25 02:23:47;;;;;;;55.97;36.70;;;1.50;99.90;;;;;;6303741;22;38868;-77
2023/01/25 02:26:15;;;;;;;56.67;36.07;;;1.50;99.90;;;;;;6274598;22;38199;-77
2023/01/25 02:29:01;;;;;;;54.20;34.87;;;1.60;99.90;;;;;;6303425;22;38022;-77
2023/01/25 02:31:27;;;;;;;54.60;35.17;;;1.50;99.90;;;;;;6302288;22;48354;-77
2023/01/25 02:33:53;;;;;;;56.60;36.30;;;1.50;99.90;;;;;;6275872;22;39137;-78
2023/01/25 02:36:32;;;;;;;56.43;36.00;;;1.50;99.90;;;;;;6304401;22;38781;-77
2023/01/25 02:39:17;;;;;;;56.40;35.80;;;1.50;99.90;;;;;;6274317;22;37196;-76
2023/01/25 02:41:46;;;;;;;57.00;35.97;;;1.40;99.90;;;;;;6294660;22;48776;-76
2023/01/25 02:44:17;;;;;;;59.10;35.40;;;1.40;99.90;;;;;;6300350;22;38405;-77
2023/01/25 02:46:44;;;;;;;57.03;37.17;;;1.50;99.90;;;;;;6277010;22;37280;-77
2023/01/25 02:49:11;;;;;;;60.97;37.60;;;1.40;99.90;;;;;;6300701;22;38291;-77
2023/01/25 02:51:43;;;;;;;57.57;36.73;;;1.40;99.90;;;;;;6276628;22;36931;-77
2023/01/25 02:54:11;;;;;;;57.55;35.28;;;1.40;99.90;;;;;;6274968;22;38940;-77
2023/01/25 02:56:39;;;;;;;57.53;37.53;;;1.40;99.90;;;;;;6277466;22;37341;-77
2023/01/25 02:59:06;;;;;;;58.80;37.20;;;1.40;99.90;;;;;;6303477;22;39062;-76
2023/01/25 03:01:34;;;;;;;62.93;40.80;;;1.40;99.90;;;;;;6300388;22;47195;-77
2023/01/25 03:04:00;;;;;;;57.47;37.23;;;1.50;99.90;;;;;;6295298;22;38669;-77
2023/01/25 03:06:26;;;;;;;62.43;38.53;;;1.50;99.90;;;;;;6302078;22;40270;-77
2023/01/25 03:08:52;;;;;;;61.93;40.50;;;1.50;99.90;;;;;;6277834;22;38255;-77
2023/01/25 03:11:18;;;;;;;63.17;39.10;;;1.40;99.90;;;;;;6274112;22;36233;-77
2023/01/25 03:13:44;;;;;;;61.20;39.43;;;1.40;99.90;;;;;;6301387;22;38378;-77
2023/01/25 03:16:12;;;;;;;58.73;37.90;;;1.50;99.90;;;;;;6302141;22;39103;-77
2023/01/25 03:18:39;;;;;;;56.47;36.23;;;1.40;99.90;;;;;;6278176;22;38824;-77
2023/01/25 03:21:07;;;;;;;58.77;36.50;;;1.40;99.90;;;;;;6275658;22;37888;-77
2023/01/25 03:23:34;;;;;;;56.23;36.27;;;1.40;99.90;;;;;;6275473;22;37649;-78
2023/01/25 03:26:15;;;;;;;59.73;36.67;;;1.40;99.90;;;;;;6278244;22;37815;-77
2023/01/25 03:28:41;;;;;;;57.23;35.60;;;1.40;99.90;;;;;;6265232;22;46778;-77
2023/01/25 03:31:11;;;;;;;63.83;38.80;;;1.40;99.90;;;;;;6305241;22;38249;-77
2023/01/25 03:33:37;;;;;;;61.00;38.43;;;1.40;99.90;;;;;;6278383;22;38926;-77
2023/01/25 03:36:04;;;;;;;63.03;39.07;;;1.40;99.90;;;;;;6276555;22;38526;-77
2023/01/25 03:38:31;;;;;;;61.60;38.80;;;1.30;99.90;;;;;;6278326;22;36890;-76
2023/01/25 03:40:57;;;;;;;64.10;37.80;;;1.30;99.90;;;;;;6278511;22;36358;-76
2023/01/25 03:43:24;;;;;;;61.67;38.43;;;1.30;99.90;;;;;;6277852;22;37620;-77
2023/01/25 03:45:52;;;;;;;62.80;38.33;;;1.30;99.90;;;;;;6277892;22;38290;-76
2023/01/25 03:48:19;;;;;;;61.70;38.70;;;1.30;99.90;;;;;;6304798;22;38865;-77
2023/01/25 03:50:54;;;;;;;60.60;37.20;;;1.30;99.90;;;;;;6278100;22;37708;-77
2023/01/25 03:53:27;;;;;;;68.63;39.87;;;1.30;99.90;;;;;;6276183;22;38869;-76
2023/01/25 03:56:07;;;;;;;61.73;37.70;;;1.30;99.90;;;;;;6304906;22;38756;-76
2023/01/25 03:58:34;;;;;;;64.30;38.47;;;1.20;99.90;;;;;;6275834;22;46955;-76
2023/01/25 04:01:01;;;;;;;64.53;38.67;;;1.20;99.90;;;;;;6305837;22;37380;-76
2023/01/25 04:03:28;;;;;;;68.90;40.07;;;1.10;99.90;;;;;;6304490;22;47560;-76
2023/01/25 04:05:55;;;;;;;61.33;36.40;;;1.10;99.90;;;;;;6277220;22;35693;-76
2023/01/25 04:08:22;;;;;;;64.50;38.87;;;1.10;99.90;;;;;;6302699;22;38289;-76
2023/01/25 04:10:55;;;;;;;65.40;40.07;;;1.10;99.90;;;;;;6277337;22;36917;-76
2023/01/25 04:13:23;;;;;;;64.50;37.57;;;1.10;99.90;;;;;;6274684;22;39345;-76
2023/01/25 04:15:50;;;;;;;69.27;40.37;;;1.00;99.90;;;;;;6276784;22;37216;-77
2023/01/25 04:18:16;;;;;;;65.07;39.07;;;1.00;99.90;;;;;;6274922;22;36872;-75
2023/01/25 04:20:43;;;;;;;61.13;37.63;;;1.00;99.90;;;;;;6277135;22;37612;-76
2023/01/25 04:23:10;;;;;;;65.00;39.33;;;1.10;99.90;;;;;;6299883;22;38445;-77
2023/01/25 04:25:37;;;;;;;65.67;40.00;;;1.10;99.90;;;;;;6278233;22;37567;-76
2023/01/25 04:28:04;;;;;;;63.37;38.13;;;1.10;99.90;;;;;;6274884;22;38311;-76
2023/01/25 04:30:30;;;;;;;65.60;37.07;;;1.10;99.90;;;;;;6277260;22;37651;-76
2023/01/25 04:33:00;;;;;;;66.47;38.20;;;1.10;99.90;;;;;;6278357;22;39268;-76
2023/01/25 04:35:27;;;;;;;63.07;38.03;;;1.10;99.90;;;;;;6274580;22;46717;-76
2023/01/25 04:37:55;;;;;;;62.70;37.80;;;1.00;99.90;;;;;;6277879;22;20020;-76
2023/01/25 04:40:21;;;;;;;65.30;37.77;;;1.00;99.90;;;;;;6304259;22;37349;-76
2023/01/25 04:42:48;;;;;;;67.00;38.47;;;0.90;99.90;;;;;;6305441;22;38704;-75
2023/01/25 04:45:14;;;;;;;64.07;38.27;;;0.90;99.90;;;;;;6301276;22;38477;-75
2023/01/25 04:47:40;;;;;;;63.77;37.60;;;1.00;99.90;;;;;;6279253;22;37309;-75
2023/01/25 04:50:06;;;;;;;63.47;36.97;;;0.80;99.90;;;;;;6275581;22;36414;-75
2023/01/25 04:52:32;;;;;;;65.87;38.60;;;0.80;99.90;;;;;;6279778;22;38438;-75
2023/01/25 04:54:58;;;;;;;63.73;37.53;;;0.80;99.90;;;;;;6280005;22;37485;-75
2023/01/25 04:57:24;;;;;;;65.10;39.03;;;0.90;99.90;;;;;;6276404;22;36793;-75
2023/01/25 04:59:51;;;;;;;65.67;37.87;;;0.80;99.90;;;;;;6277588;22;36447;-74
2023/01/25 05:02:17;;;;;;;64.80;37.63;;;0.90;99.90;;;;;;6275888;22;38934;-75
2023/01/25 05:04:43;;;;;;;68.33;38.10;;;0.80;99.90;;;;;;6277970;22;37510;-76
2023/01/25 05:07:09;;;;;;;61.37;35.93;;;0.70;99.90;;;;;;6278751;22;36870;-76
2023/01/25 05:09:35;;;;;;;64.37;36.60;;;0.70;99.90;;;;;;6301512;22;37362;-76
2023/01/25 05:12:01;;;;;;;65.87;37.67;;;0.70;99.90;;;;;;6308977;22;38872;-76
2023/01/25 05:14:27;;;;;;;67.93;38.90;;;0.70;99.90;;;;;;6308549;22;48702;-74
2023/01/25 05:16:53;;;;;;;68.13;38.17;;;0.70;99.90;;;;;;6281386;22;37338;-76
2023/01/25 05:19:19;;;;;;;67.03;38.13;;;0.50;99.90;;;;;;6276453;22;37386;-75
2023/01/25 05:21:57;;;;;;;66.57;36.70;;;0.50;99.90;;;;;;6279139;22;38672;-76
2023/01/25 05:24:25;;;;;;;69.80;38.87;;;0.50;99.90;;;;;;6305145;22;38664;-76
2023/01/25 05:27:02;;;;;;;69.60;38.37;;;0.50;99.90;;;;;;6278109;22;37145;-75
2023/01/25 05:29:35;;;;;;;68.17;37.37;;;0.50;99.90;;;;;;6303604;22;48702;-75
2023/01/25 05:32:11;;;;;;;71.97;38.20;;;0.50;99.90;;;;;;6276861;22;37832;-76
2023/01/25 05:34:38;;;;;;;70.57;38.83;;;0.50;99.90;;;;;;6298088;22;49275;-76
2023/01/25 05:37:06;;;;;;;69.80;38.30;;;0.50;99.90;;;;;;6272208;22;36887;-76
2023/01/25 05:39:32;;;;;;;68.83;40.27;;;0.50;99.90;;;;;;6276635;22;36547;-75
2023/01/25 05:41:58;;;;;;;71.57;38.03;;;0.50;99.90;;;;;;6276007;22;37809;-76
2023/01/25 05:44:25;;;;;;;72.37;39.37;;;0.50;99.90;;;;;;6298186;22;37878;-76
2023/01/25 05:46:51;;;;;;;73.57;40.27;;;0.50;99.90;;;;;;6304147;22;38414;-76
2023/01/25 05:49:17;;;;;;;69.27;40.60;;;0.50;99.90;;;;;;6275743;22;36409;-76
2023/01/25 05:51:45;;;;;;;77.43;41.43;;;0.50;99.90;;;;;;6277414;22;38619;-74
2023/01/25 05:54:13;;;;;;;68.70;39.27;;;0.50;99.90;;;;;;6273639;22;37766;-75
2023/01/25 05:56:40;;;;;;;75.97;39.70;;;0.60;99.90;;;;;;6275728;22;36976;-75
2023/01/25 05:59:06;;;;;;;72.47;41.23;;;0.70;99.90;;;;;;6274235;22;36603;-76
2023/01/25 06:01:32;;;;;;;69.57;39.67;;;0.70;99.90;;;;;;6304540;22;38333;-75
2023/01/25 06:03:58;;;;;;;71.47;41.77;;;0.80;99.90;;;;;;6270124;22;37461;-74
2023/01/25 06:06:24;;;;;;;69.57;38.00;;;0.70;99.90;;;;;;6302301;22;38910;-75
2023/01/25 06:08:50;;;;;;;71.03;40.37;;;0.70;99.90;;;;;;6276342;22;36164;-75
2023/01/25 06:11:19;;;;;;;70.77;39.43;;;0.80;99.90;;;;;;6304687;22;39288;-74
2023/01/25 06:13:46;;;;;;;68.67;38.63;;;0.70;99.90;;;;;;6274368;22;37424;-75
2023/01/25 06:16:12;;;;;;;73.53;40.90;;;0.70;99.90;;;;;;6272466;22;37149;-75
2023/01/25 06:18:38;;;;;;;69.93;37.37;;;0.70;99.90;;;;;;6314596;22;37001;-77
2023/01/25 06:21:05;;;;;;;70.33;38.53;;;0.70;99.90;;;;;;6256256;22;39196;-75
2023/01/25 06:23:31;;;;;;;74.77;38.97;;;0.60;99.90;;;;;;6302835;22;39440;-77
2023/01/25 06:26:02;;;;;;;68.23;37.83;;;0.70;99.90;;;;;;6274887;22;38789;-75
2023/01/25 06:28:30;;;;;;;70.30;38.30;;;0.70;99.90;;;;;;6271180;22;47392;-75
2023/01/25 06:31:12;;;;;;;74.77;39.80;;;0.80;99.90;;;;;;6305387;22;38680;-76
2023/01/25 06:33:39;;;;;;;72.43;38.20;;;0.80;99.90;;;;;;6275815;22;47288;-76
2023/01/25 06:36:09;;;;;;;69.37;39.30;;;0.80;99.90;;;;;;6307666;22;39131;-78
2023/01/25 06:38:35;;;;;;;75.00;39.63;;;0.80;99.90;;;;;;6288858;22;38700;-76
2023/01/25 06:41:04;;;;;;;75.90;41.47;;;0.80;99.90;;;;;;6300595;22;38006;-78
2023/01/25 06:43:32;;;;;;;75.83;41.07;;;0.70;99.90;;;;;;6295553;22;39249;-76
2023/01/25 06:45:59;;;;;;;78.63;42.43;;;0.80;99.90;;;;;;6275314;22;37206;-76
2023/01/25 06:48:27;;;;;;;76.10;43.37;;;0.80;99.90;;;;;;6277215;22;36625;-75
2023/01/25 06:50:58;;;;;;;77.93;42.07;;;0.80;99.90;;;;;;6275576;22;38954;-75
2023/01/25 06:53:30;;;;;;;78.53;43.83;;;0.90;99.90;;;;;;6276199;22;37308;-76
2023/01/25 06:56:00;;;;;;;76.80;42.60;;;0.90;99.90;;;;;;6305682;22;38309;-76
2023/01/25 06:58:28;;;;;;;78.03;41.50;;;0.90;99.90;;;;;;6296282;22;48028;-77
2023/01/25 07:01:00;;;;;;;75.70;41.40;;;0.90;99.90;;;;;;6267610;22;37575;-75
2023/01/25 07:03:27;;;;;;;78.00;43.33;;;0.90;99.90;;;;;;6272499;22;37643;-75
2023/01/25 07:05:58;;;;;;;77.30;41.70;;;0.90;99.90;;;;;;6303169;22;37981;-75
2023/01/25 07:08:24;;;;;;;73.87;39.93;;;0.90;99.90;;;;;;6273092;22;36567;-75
2023/01/25 07:11:01;;;;;;;70.07;41.03;;;0.90;99.90;;;;;;6275740;22;37588;-77
2023/01/25 07:13:29;;;;;;;73.27;40.93;;;0.90;99.90;;;;;;6275129;22;47200;-75
2023/01/25 07:16:03;;;;;;;76.57;41.97;;;1.10;99.90;;;;;;6302508;22;39449;-74
2023/01/25 07:18:30;;;;;;;74.23;42.00;;;1.10;99.90;;;;;;6267833;22;46989;-75
2023/01/25 07:21:07;;;;;;;77.40;42.13;;;1.00;99.90;;;;;;6271893;22;39072;-75
2023/01/25 07:23:34;;;;;;;77.07;44.40;;;1.00;99.90;;;;;;6261417;22;47016;-75
2023/01/25 07:26:01;;;;;;;80.57;43.73;;;1.00;99.90;;;;;;6273947;22;37790;-75
2023/01/25 07:28:27;;;;;;;84.87;45.70;;;0.90;99.90;;;;;;6301668;22;46773;-75
2023/01/25 07:31:02;;;;;;;74.93;42.57;;;1.00;99.90;;;;;;6276200;22;37443;-74
2023/01/25 07:33:28;;;;;;;74.40;41.60;;;1.00;99.90;;;;;;6293877;22;48668;-74
2023/01/25 07:35:59;;;;;;;80.97;43.77;;;1.00;99.90;;;;;;6276578;22;38262;-75
2023/01/25 07:38:25;;;;;;;79.87;43.53;;;1.10;99.90;;;;;;6302890;22;38520;-75
2023/01/25 07:40:52;;;;;;;85.43;45.60;;;1.00;99.90;;;;;;6300434;22;38601;-75
2023/01/25 07:43:19;;;;;;;86.47;44.83;;;1.00;99.90;;;;;;6302992;22;38906;-75
2023/01/25 07:45:47;;;;;;;83.00;44.27;;;1.00;99.90;;;;;;6273133;22;37097;-76
2023/01/25 07:48:15;;;;;;;82.53;45.13;;;1.10;99.90;;;;;;6269786;22;36299;-76
2023/01/25 07:50:41;;;;;;;81.90;45.43;;;1.00;99.90;;;;;;6274437;22;39153;-76
2023/01/25 07:53:07;;;;;;;84.30;43.90;;;1.00;99.90;;;;;;6272409;22;37239;-76
2023/01/25 07:55:34;;;;;;;83.27;44.20;;;1.00;99.90;;;;;;6272404;22;36843;-75
2023/01/25 07:58:00;;;;;;;86.00;45.07;;;0.90;99.90;;;;;;6300714;22;38149;-74
2023/01/25 08:00:26;;;;;;;82.80;45.27;;;0.90;99.90;;;;;;6300026;22;48675;-75
2023/01/25 08:02:52;;;;;;;87.43;47.83;;;0.90;99.90;;;;;;6275931;22;38519;-76
2023/01/25 08:05:19;;;;;;;83.63;44.63;;;0.90;99.90;;;;;;6273817;22;37009;-74
2023/01/25 08:07:46;;;;;;;86.60;45.83;;;0.90;99.90;;;;;;6303768;22;37170;-76
2023/01/25 08:10:12;;;;;;;88.87;46.27;;;1.00;99.90;;;;;;6271804;22;37378;-75
2023/01/25 08:12:38;;;;;;;80.80;41.87;;;1.00;99.90;;;;;;6303838;22;39481;-76
2023/01/25 08:15:05;;;;;;;86.90;45.50;;;1.00;99.90;;;;;;6276509;22;37335;-76
2023/01/25 08:17:32;;;;;;;83.90;44.47;;;1.00;99.90;;;;;;6302913;22;47751;-76
2023/01/25 08:19:59;;;;;;;84.93;44.20;;;1.00;99.90;;;;;;6268286;22;39041;-75
2023/01/25 08:22:25;;;;;;;85.13;45.20;;;1.00;99.90;;;;;;6274021;22;37895;-75
2023/01/25 08:24:51;;;;;;;87.03;45.93;;;1.00;99.90;;;;;;6279333;22;38190;-76
2023/01/25 08:27:17;;;;;;;87.90;45.77;;;1.10;99.90;;;;;;6277695;22;36554;-75
2023/01/25 08:29:44;;;;;;;87.90;46.40;;;1.00;99.90;;;;;;6306598;22;38776;-75
2023/01/25 08:32:10;;;;;;;83.30;46.23;;;0.80;99.90;;;;;;6309603;22;39491;-76
2023/01/25 08:34:36;;;;;;;80.20;43.67;;;0.80;99.90;;;;;;6281471;22;39635;-76
2023/01/25 08:37:02;;;;;;;84.10;45.50;;;0.90;99.90;;;;;;6305138;22;38569;-76
2023/01/25 08:39:28;;;;;;;79.37;44.13;;;0.90;99.90;;;;;;6305527;22;39847;-76
2023/01/25 08:41:54;;;;;;;78.50;42.00;;;0.90;99.90;;;;;;6277152;22;37497;-76
2023/01/25 08:44:22;;;;;;;82.63;45.53;;;1.00;99.90;;;;;;6303936;22;38203;-76
2023/01/25 08:46:49;;;;;;;85.20;44.60;;;0.90;99.90;;;;;;6277709;22;39066;-76
2023/01/25 08:49:15;;;;;;;83.37;43.77;;;0.90;99.90;;;;;;6302614;22;39448;-76
2023/01/25 08:51:41;;;;;;;80.70;43.77;;;1.00;99.90;;;;;;6302180;22;38265;-75
2023/01/25 08:54:11;;;;;;;83.00;44.23;;;0.90;99.90;;;;;;6273256;22;36815;-75
2023/01/25 08:56:39;;;;;;;87.03;47.30;;;0.90;99.90;;;;;;6302026;22;37786;-76
2023/01/25 08:59:06;;;;;;;87.77;45.67;;;0.90;99.90;;;;;;6298850;22;38949;-75
2023/01/25 09:01:32;;;;;;;80.57;44.20;;;0.90;99.90;;;;;;6303036;22;38808;-76
2023/01/25 09:03:58;;;;;;;81.50;42.70;;;1.00;99.90;;;;;;6275361;22;37323;-76
2023/01/25 09:06:24;;;;;;;83.93;44.67;;;1.00;99.90;;;;;;6298143;22;37749;-76
2023/01/25 09:08:50;;;;;;;78.90;43.17;;;1.00;99.90;;;;;;6304290;22;39567;-76
2023/01/25 09:11:19;;;;;;;85.20;45.00;;;1.00;99.90;;;;;;6273467;22;37256;-76
2023/01/25 09:13:47;;;;;;;84.20;44.10;;;1.00;99.90;;;;;;6301383;22;38145;-75
2023/01/25 09:16:21;;;;;;;81.30;42.70;;;0.90;99.90;;;;;;6299908;22;36873;-76
2023/01/25 09:18:47;;;;;;;79.97;42.80;;;0.90;99.90;;;;;;6298132;22;38575;-75
2023/01/25 09:21:15;;;;;;;83.63;42.23;;;1.00;99.90;;;;;;6272201;22;37308;-76
2023/01/25 09:23:43;;;;;;;79.00;40.87;;;0.80;99.90;;;;;;6275142;22;38098;-75
2023/01/25 09:26:10;;;;;;;75.83;39.20;;;0.80;99.90;;;;;;6300415;22;37432;-75
2023/01/25 09:28:36;;;;;;;78.70;42.10;;;0.80;99.90;;;;;;6299352;22;39811;-75
2023/01/25 09:31:04;;;;;;;80.53;42.90;;;0.80;99.90;;;;;;6302320;22;38807;-74
2023/01/25 09:33:33;;;;;;;80.93;41.83;;;0.80;99.90;;;;;;6302847;22;39362;-74
2023/01/25 09:36:00;;;;;;;82.93;43.77;;;0.80;99.90;;;;;;6276941;22;36160;-75
2023/01/25 09:38:26;;;;;;;80.60;43.77;;;0.90;99.90;;;;;;6303089;22;39562;-75
2023/01/25 09:41:19;;;;;;;80.27;43.43;;;0.90;99.90;;;;;;6302870;22;38073;-76
2023/01/25 09:44:12;;;;;;;80.68;43.97;;;1.00;99.90;;;;;;6258487;22;48901;-75
2023/01/25 09:46:40;;;;;;;;;;;1.00;99.90;;;;;;6296123;22;49389;-76
2023/01/25 09:49:12;;;;;;;79.27;41.40;;;1.20;99.90;;;;;;6273012;22;39490;-76
2023/01/25 09:51:50;;;;;;;83.72;43.75;;;1.10;99.90;;;;;;6305154;22;37801;-75
2023/01/25 09:54:18;;;;;;;79.13;42.90;;;1.10;99.90;;;;;;6276508;22;37353;-75
2023/01/25 09:56:49;;;;;;;81.60;42.40;;;1.10;99.90;;;;;;6277771;22;37967;-75
2023/01/25 09:59:20;;;;;;;82.23;43.03;;;1.10;99.90;;;;;;6273032;22;38428;-76
2023/01/25 10:01:59;;;;;;;87.17;43.67;;;1.20;99.90;;;;;;6280500;22;37200;-76
2023/01/25 10:04:29;;;;;;;84.53;42.70;;;1.20;99.90;;;;;;6305176;22;37862;-76
2023/01/25 10:07:19;;;;;;;76.87;40.50;;;1.20;99.90;;;;;;6274649;22;36512;-76
2023/01/25 10:10:02;;;;;;;82.57;44.50;;;1.20;99.90;;;;;;6272815;22;47225;-76
2023/01/25 10:12:34;;;;;;;79.77;42.17;;;1.20;99.90;;;;;;6269809;22;47099;-76
2023/01/25 10:15:01;;;;;;;79.63;42.22;;;1.10;99.90;;;;;;6299974;22;37943;-76
2023/01/25 10:17:37;;;;;;;82.17;44.87;;;1.20;99.90;;;;;;6300322;22;48861;-77
2023/01/25 10:20:23;;;;;;;80.97;42.87;;;1.30;99.90;;;;;;6301894;22;38500;-76
2023/01/25 10:22:59;;;;;;;79.83;42.33;;;1.30;99.90;;;;;;6272523;22;48631;-76
2023/01/25 10:25:44;;;;;;;78.70;42.13;;;1.20;99.90;;;;;;6271801;22;38400;-76
2023/01/25 10:28:32;;;;;;;85.87;44.73;;;1.20;99.90;;;;;;6266271;22;36276;-76
2023/01/25 10:31:03;;;;;;;88.17;44.80;;;1.10;99.90;;;;;;6300049;22;39119;-74
2023/01/25 10:33:33;;;;;;;75.23;39.87;;;0.90;99.90;;;;;;6292980;22;47606;-75
2023/01/25 10:36:01;;;;;;;76.17;40.80;;;0.90;99.90;;;;;;6271162;22;37128;-75
2023/01/25 10:38:44;;;;;;;78.17;41.27;;;1.10;99.90;;;;;;6271708;22;47454;-76
2023/01/25 10:41:16;;;;;;;81.65;41.80;;;1.20;99.90;;;;;;6270610;22;37764;-75
2023/01/25 10:43:42;;;;;;;78.47;42.95;;;1.20;99.90;;;;;;6271631;22;37925;-76
2023/01/25 10:46:24;;;;;;;80.23;42.60;;;1.30;99.90;;;;;;6297065;22;38574;-76
2023/01/25 10:48:50;;;;;;;76.70;42.57;;;1.40;99.90;;;;;;6273280;22;37092;-76
2023/01/25 10:51:34;;;;;;;81.43;42.27;;;1.40;99.90;;;;;;6270757;22;39611;-76
2023/01/25 10:54:05;;;;;;;73.40;40.10;;;1.50;99.90;;;;;;6271433;22;38679;-76
2023/01/25 10:56:37;;;;;;;74.17;41.27;;;1.40;99.90;;;;;;6298988;22;47726;-75
2023/01/25 10:59:16;;;;;;;74.93;41.03;;;1.50;99.90;;;;;;6271711;22;37804;-76
2023/01/25 11:01:42;;;;;;;76.10;40.57;;;1.40;99.90;;;;;;6301053;22;47258;-76
2023/01/25 11:04:22;;;;;;;78.57;41.77;;;1.30;99.90;;;;;;6269309;22;37068;-76
2023/01/25 11:06:50;;;;;;;78.17;41.77;;;1.30;99.90;;;;;;6275275;22;36945;-76
2023/01/25 11:09:29;;;;;;;75.63;40.23;;;1.20;99.90;;;;;;6300834;22;37325;-77
2023/01/25 11:11:58;;;;;;;73.37;39.23;;;1.30;99.90;;;;;;6271112;22;37483;-76
2023/01/25 11:14:26;;;;;;;72.43;39.47;;;1.30;99.90;;;;;;6270974;22;38409;-76
2023/01/25 11:16:54;;;;;;;71.67;38.30;;;1.20;99.90;;;;;;6299560;22;38472;-75
2023/01/25 11:19:23;;;;;;;71.17;40.60;;;1.00;99.90;;;;;;6300967;22;38510;-76
2023/01/25 11:21:51;;;;;;;69.93;39.60;;;1.20;99.90;;;;;;6300143;22;38659;-75
2023/01/25 11:24:17;;;;;;;69.47;37.27;;;1.20;99.90;;;;;;6295976;22;37623;-75
2023/01/25 11:26:44;;;;;;;72.43;37.90;;;1.20;99.90;;;;;;6271183;22;38138;-75
2023/01/25 11:29:12;;;;;;;70.30;37.90;;;1.00;99.90;;;;;;6265752;22;37506;-74
2023/01/25 11:31:44;;;;;;;68.07;36.23;;;1.10;99.90;;;;;;6268496;22;37739;-75
2023/01/25 11:34:17;;;;;;;67.88;38.25;;;1.30;99.90;;;;;;6270130;22;37301;-75
2023/01/25 11:37:05;;;;;;;64.88;35.78;;;1.20;99.90;;;;;;6270235;22;38075;-76
2023/01/25 11:39:44;;;;;;;72.27;37.00;;;1.10;99.90;;;;;;6296766;22;48006;-75
2023/01/25 11:42:17;;;;;;;68.73;38.63;;;1.00;99.90;;;;;;6271159;22;37661;-74
2023/01/25 11:45:20;;;;;;;63.13;34.72;;;1.00;99.90;;;;;;6272975;22;38038;-75
2023/01/25 11:48:06;;;;;;;60.15;32.78;;;1.10;99.90;;;;;;6270643;22;47212;-75
2023/01/25 11:50:46;;;;;;;61.37;34.50;;;0.90;99.90;;;;;;6264380;22;47458;-75
2023/01/25 11:53:27;;;;;;;58.03;32.43;;;0.80;99.90;;;;;;6299003;22;38678;-75
2023/01/25 11:56:40;;;;;;;66.03;34.47;;;0.90;99.90;;;;;;6300832;22;39107;-75
2023/01/25 11:59:31;;;;;;;64.43;34.73;;;1.00;99.90;;;;;;6138716;23;47279;-75
2023/01/25 12:02:28;;;;;;;63.27;34.07;;;1.00;99.90;;;;;;6300943;22;38113;-75
2023/01/25 12:05:22;;;;;;;66.47;33.90;;;0.90;99.90;;;;;;6279191;22;49254;-74
2023/01/25 12:08:00;;;;;;;63.40;32.73;;;0.80;99.90;;;;;;6271195;22;47552;-75
2023/01/25 12:10:35;;;;;;;66.73;34.90;;;0.90;99.90;;;;;;6292990;22;47234;-74
2023/01/25 12:13:10;;;;;;;59.30;33.93;;;1.00;99.90;;;;;;6272881;22;37342;-75
2023/01/25 12:15:57;;;;;;;61.23;33.83;;;1.00;99.90;;;;;;6269708;22;48664;-74
2023/01/25 12:18:44;;;;;;;66.20;34.63;;;1.10;99.90;;;;;;6269214;22;37488;-74
2023/01/25 12:21:28;;;;;;;63.87;35.00;;;1.10;99.90;;;;;;6298455;22;39299;-74
2023/01/25 12:24:03;;;;;;;60.33;34.73;;;1.10;99.90;;;;;;6272086;22;36645;-74
2023/01/25 12:26:59;;;;;;;63.97;35.47;;;1.10;99.90;;;;;;6266162;22;47816;-74
2023/01/25 12:29:29;;;;;;;65.50;35.47;;;1.10;99.90;;;;;;6269671;22;37600;-74
2023/01/25 12:32:02;;;;;;;59.77;33.27;;;1.10;99.90;;;;;;6273532;22;37261;-77
2023/01/25 12:34:41;;;;;;;61.40;34.50;;;1.00;99.90;;;;;;6291622;22;48940;-75
2023/01/25 12:37:34;;;;;;;55.57;31.03;;;1.00;99.90;;;;;;6286237;22;38600;-78
2023/01/25 12:40:18;;;;;;;64.28;33.70;;;1.10;99.90;;;;;;6273372;22;39948;-77
2023/01/25 12:43:07;;;;;;;59.47;32.30;;;1.20;99.90;;;;;;6234999;22;47260;-77
2023/01/25 12:45:36;;;;;;;60.70;33.30;;;1.20;99.90;;;;;;6260795;22;48034;-77
2023/01/25 12:48:05;;;;;;;62.17;34.40;;;1.20;99.90;;;;;;6271215;22;38647;-77
2023/01/25 12:50:55;;;;;;;61.37;33.93;;;1.00;99.90;;;;;;6302313;22;38003;-77
2023/01/25 12:53:43;;;;;;;61.47;34.93;;;1.10;99.90;;;;;;6302495;22;38469;-77
2023/01/25 12:56:29;;;;;;;61.63;34.70;;;1.20;99.90;;;;;;6272666;22;36580;-76
2023/01/25 12:59:17;;;;;;;68.47;35.60;;;1.40;99.90;;;;;;6303325;22;38498;-80
2023/01/25 13:02:20;;;;;;;67.03;36.73;;;1.30;99.90;;;;;;6329494;22;50288;-80
2023/01/25 13:05:27;;;;;;;66.07;33.40;;;1.30;99.90;;;;;;6277771;22;48158;-79
2023/01/25 13:08:25;;;;;;;73.33;39.20;;;1.30;99.90;;;;;;6184576;23;50488;-80